Alloway, NJ

1:13 PM EDT on August 25, 2016 (GMT -0400)
NJWxNet | | Change Station

Elev 49 ft 39.63 °N, 75.36 °W | Updated 28 minutes ago

Partly Cloudy
Partly Cloudy
83 °F
Feels Like 87 °F
N
6
Wind Variable Wind from SSW
Gusts 14.0 mph

Today
High -- | Low -- °F
--% Chance of Precip.
Yesterday
High -- | Low -- °F
Precip. -- in
Pressure 30.08 in
Visibility 10.0 miles
Clouds Few 2800 ft
Few 5500 ft
Heat Index 87 °F
Dew Point 71 °F
Humidity 66%
Rainfall in
Snow Depth Not available.
6:23 AM 7:42 PM
Last Quarter, 44% visible
METAR KILG 251651Z 18010KT 10SM FEW028 FEW055 28/21 A3008 RMK AO2 SLP184 T02830211
Pressure 30.08 in
Visibility 10.0 miles
Clouds Few 2800 ft
Few 5500 ft
Heat Index 87 °F
Dew Point 71 °F
Humidity 66%
Rainfall in
Snow Depth Not available.
6:23 AM 7:42 PM
Last Quarter, 44% visible
METAR KILG 251651Z 18010KT 10SM FEW028 FEW055 28/21 A3008 RMK AO2 SLP184 T02830211

10-Day Weather Forecast

Almanac

Astronomy

Aug. 25, 2016 Rise Set
Actual Time
Civil Twilight
Nautical Twilight
Astronomical Twilight
Moon
Length of Visible Light
Length of Day
Tomorrow will be .
, % of the Moon is Illuminated

Today's Extremes

State Highs State Lows

Community

WunderPhotos

Upload Photos

1,934,877 photos uploaded!

WunderBlog® & News

Nearby

Air Quality

  Air Quality AQ Index Pollutant
Not available.

Snow Depth

Station Depth Elevation

Earthquake Activity

City Distance Mag. Time & Date
Minimum magnitude displayed is 2.5.

Coastal Water Temperatures

Place Temperature

Stations

Nearby Weather Stations

Station Location Temp. Windchill Dew Point Humidity Wind Precip. Elev Updated Type
                   

Watches & Warnings

There are currently no watches in effect.